Time;durP1;ratioP1;P1;durP2;ratioP2;P2;SDS_P1;SDS_P2;PMS_P1;PMS_P2;Temp;Humidity;BMP_temperature;BMP_pressure;BME280_temperature;BME280_humidity;BME280_pressure;Samples;Min_cycle;Max_cycle;Signal;HPM_P1;HPM_P2
2023/01/24 00:00:11;;;;;;;22.63;13.07;;;5.40;99.90;;;;;;5064496;28;20039;-87
2023/01/24 00:02:37;;;;;;;25.33;14.20;;;2.90;99.90;;;;;;5100486;28;20511;-86
2023/01/24 00:05:04;;;;;;;23.85;13.82;;;4.70;99.90;;;;;;5076307;28;20448;-88
2023/01/24 00:07:30;;;;;;;23.35;13.77;;;2.90;99.90;;;;;;5079109;28;20739;-87
2023/01/24 00:09:56;;;;;;;24.55;14.43;;;2.80;99.90;;;;;;5076873;28;20039;-86
2023/01/24 00:12:21;;;;;;;22.92;13.73;;;3.70;99.90;;;;;;5065361;28;20035;-87
2023/01/24 00:14:47;;;;;;;24.27;14.18;;;2.80;99.90;;;;;;5075973;28;20123;-88
2023/01/24 00:17:13;;;;;;;23.65;14.30;;;2.90;99.90;;;;;;5093733;28;20040;-88
2023/01/24 00:19:39;;;;;;;21.10;13.05;;;3.70;99.90;;;;;;5097543;28;20055;-87
2023/01/24 00:22:06;;;;;;;24.98;14.15;;;2.90;99.90;;;;;;5080921;28;20047;-87
2023/01/24 00:24:34;;;;;;;23.38;13.60;;;2.80;99.90;;;;;;5080704;28;20100;-87
2023/01/24 00:27:00;;;;;;;25.63;14.77;;;4.20;99.90;;;;;;5082423;28;20043;-88
2023/01/24 00:29:26;;;;;;;23.70;14.35;;;2.90;99.90;;;;;;5095386;28;20104;-87
2023/01/24 00:31:52;;;;;;;23.77;14.55;;;2.80;99.90;;;;;;5076403;28;20032;-86
2023/01/24 00:34:21;;;;;;;27.70;15.15;;;2.90;99.90;;;;;;5066145;28;20032;-88
2023/01/24 00:36:49;;;;;;;26.35;15.25;;;2.80;99.90;;;;;;5069135;28;20048;-86
2023/01/24 00:39:14;;;;;;;25.08;14.27;;;2.90;99.90;;;;;;5067429;28;20028;-88
2023/01/24 00:41:40;;;;;;;24.73;14.00;;;2.90;99.90;;;;;;5067397;28;20507;-87
2023/01/24 00:44:06;;;;;;;25.48;15.00;;;4.50;99.90;;;;;;5065914;28;20036;-88
2023/01/24 00:46:32;;;;;;;24.67;14.65;;;2.80;99.90;;;;;;5068449;28;20054;-87
2023/01/24 00:49:00;;;;;;;24.65;15.20;;;2.90;99.90;;;;;;5095659;28;20038;-87
2023/01/24 00:51:25;;;;;;;24.70;14.98;;;4.20;99.90;;;;;;5068501;28;20153;-88
2023/01/24 00:53:51;;;;;;;26.42;15.95;;;2.80;99.90;;;;;;5046547;28;20070;-89
2023/01/24 00:56:17;;;;;;;26.95;16.10;;;3.60;99.90;;;;;;5079043;28;20032;-89
2023/01/24 00:58:46;;;;;;;24.80;15.25;;;2.80;99.90;;;;;;5068742;28;20039;-88
2023/01/24 01:01:11;;;;;;;28.67;15.88;;;2.90;99.90;;;;;;5101405;28;20059;-89
2023/01/24 01:03:40;;;;;;;26.17;16.48;;;2.90;99.90;;;;;;5068196;28;20404;-89
2023/01/24 01:06:09;;;;;;;25.33;15.15;;;2.10;99.90;;;;;;5098318;28;20028;-87
2023/01/24 01:08:35;;;;;;;28.52;16.33;;;2.80;99.90;;;;;;5083081;28;20035;-89
2023/01/24 01:11:01;;;;;;;25.77;15.43;;;2.80;99.90;;;;;;5076848;28;20047;-88
2023/01/24 01:13:27;;;;;;;26.15;15.55;;;2.90;99.90;;;;;;5067771;28;20409;-89
2023/01/24 01:16:07;;;;;;;27.90;16.45;;;2.90;99.90;;;;;;5097903;28;20036;-89
2023/01/24 01:18:34;;;;;;;27.50;17.55;;;3.60;99.90;;;;;;5100784;28;20036;-89
2023/01/24 01:21:00;;;;;;;26.48;15.80;;;2.80;99.90;;;;;;5093183;28;20067;-87
2023/01/24 01:23:28;;;;;;;28.60;17.25;;;2.90;99.90;;;;;;5086938;28;20515;-86
2023/01/24 01:25:59;;;;;;;28.80;15.43;;;2.90;99.90;;;;;;5076062;28;20075;-87
2023/01/24 01:28:24;;;;;;;28.30;16.52;;;2.90;99.90;;;;;;5100127;28;20092;-88
2023/01/24 01:30:54;;;;;;;27.50;16.75;;;2.80;99.90;;;;;;5079895;28;20039;-88
2023/01/24 01:33:21;;;;;;;28.42;16.70;;;2.80;99.90;;;;;;5069689;28;20044;-88
2023/01/24 01:35:48;;;;;;;29.90;17.75;;;;;;;;;;5085989;28;20048;-88
2023/01/24 01:38:15;;;;;;;26.55;16.80;;;2.80;99.90;;;;;;5102127;28;20036;-89
2023/01/24 01:40:41;;;;;;;29.08;17.38;;;2.80;99.90;;;;;;5069856;28;20032;-88
2023/01/24 01:43:16;;;;;;;29.25;17.40;;;2.80;99.90;;;;;;5070937;28;20816;-87
2023/01/24 01:45:47;;;;;;;28.77;17.13;;;2.90;99.90;;;;;;5110805;27;20074;-90
2023/01/24 01:48:22;;;;;;;29.38;17.23;;;2.80;99.90;;;;;;5102880;28;20092;-87
2023/01/24 01:50:54;;;;;;;26.92;16.88;;;2.80;99.90;;;;;;5103882;28;20035;-87
2023/01/24 01:53:21;;;;;;;29.75;17.50;;;2.80;99.90;;;;;;5085704;28;20043;-88
2023/01/24 01:55:53;;;;;;;28.58;17.67;;;2.80;99.90;;;;;;5084788;28;20067;-89
2023/01/24 01:58:20;;;;;;;29.98;17.42;;;2.90;99.90;;;;;;5101165;28;20090;-87
2023/01/24 02:00:49;;;;;;;30.15;18.23;;;4.70;99.90;;;;;;5085592;28;20056;-88
2023/01/24 02:03:38;;;;;;;27.80;16.95;;;2.90;99.90;;;;;;5072117;28;20112;-88
2023/01/24 02:06:21;;;;;;;29.80;17.17;;;2.90;99.90;;;;;;5082695;28;20070;-88
2023/01/24 02:08:48;;;;;;;28.77;17.48;;;2.90;99.90;;;;;;5101316;28;20047;-88
2023/01/24 02:16:44;;;;;;;28.23;16.65;;;3.60;99.90;;;;;;5080968;28;20119;-89
2023/01/24 02:19:25;;;;;;;29.10;17.00;;;2.80;99.90;;;;;;5099473;28;20123;-88
2023/01/24 02:21:57;;;;;;;31.77;18.45;;;2.90;99.90;;;;;;5083957;28;20039;-87
2023/01/24 02:24:33;;;;;;;29.20;17.65;;;2.80;99.90;;;;;;5084436;28;20040;-88
2023/01/24 02:26:59;;;;;;;30.13;18.55;;;2.80;99.90;;;;;;5100187;28;20626;-88
2023/01/24 02:29:35;;;;;;;29.55;17.10;;;2.90;99.90;;;;;;5099245;28;20075;-88
2023/01/24 02:32:06;;;;;;;30.45;17.98;;;2.90;99.90;;;;;;5084637;28;20038;-89
2023/01/24 02:34:37;;;;;;;31.73;17.80;;;2.90;99.90;;;;;;5085420;28;20047;-89
2023/01/24 02:37:13;;;;;;;28.55;17.08;;;2.90;99.90;;;;;;5055203;28;20071;-88
2023/01/24 02:39:54;;;;;;;28.05;17.15;;;2.90;99.90;;;;;;5079687;28;20039;-89
2023/01/24 02:42:30;;;;;;;29.52;17.58;;;2.90;99.90;;;;;;5096667;28;20522;-87
2023/01/24 02:45:00;;;;;;;28.38;17.02;;;2.90;99.90;;;;;;5080830;28;21642;-86
2023/01/24 02:47:32;;;;;;;32.58;17.52;;;2.90;99.90;;;;;;5099301;28;20043;-89
2023/01/24 02:50:01;;;;;;;29.50;17.25;;;2.90;99.90;;;;;;5082100;28;20052;-88
2023/01/24 02:55:21;;;;;;;27.25;16.88;;;2.90;99.90;;;;;;5087604;28;20806;-88
2023/01/24 02:58:05;;;;;;;30.20;17.60;;;4.10;99.90;;;;;;5079796;28;20036;-88
2023/01/24 03:00:46;;;;;;;28.88;18.05;;;2.90;99.90;;;;;;5082887;28;20035;-88
2023/01/24 03:03:12;;;;;;;30.95;18.98;;;2.90;99.90;;;;;;5071822;28;20124;-88
2023/01/24 03:05:57;;;;;;;30.20;18.40;;;;;;;;;;5080055;28;20101;-88
2023/01/24 03:08:29;;;;;;;29.98;16.88;;;2.90;99.90;;;;;;5082345;28;20040;-89
2023/01/24 03:10:55;;;;;;;29.48;17.88;;;2.90;99.90;;;;;;5092261;28;20052;-88
2023/01/24 03:35:35;;;;;;;27.90;17.02;;;2.80;99.90;;;;;;5085852;28;20074;-88
2023/01/24 03:40:46;;;;;;;29.27;17.58;;;3.20;99.90;;;;;;5093696;28;20040;-87
2023/01/24 03:43:12;;;;;;;29.33;17.95;;;2.90;99.90;;;;;;5095482;28;20093;-88
2023/01/24 03:46:09;;;;;;;29.75;17.45;;;3.40;99.90;;;;;;5067582;28;20059;-88
2023/01/24 03:48:41;;;;;;;27.25;16.33;;;2.80;99.90;;;;;;5081819;28;20044;-90
2023/01/24 03:53:53;;;;;;;27.15;15.82;;;2.80;99.90;;;;;;5092655;28;20039;-88
2023/01/24 03:56:18;;;;;;;27.88;16.27;;;2.90;99.90;;;;;;5077343;28;20388;-88
2023/01/24 03:58:44;;;;;;;26.40;16.17;;;2.80;99.90;;;;;;5097899;28;20036;-89
2023/01/24 04:01:10;;;;;;;27.55;16.80;;;2.80;99.90;;;;;;5048535;28;20056;-88
2023/01/24 04:03:36;;;;;;;29.27;17.23;;;2.80;99.90;;;;;;5049945;28;20103;-87
2023/01/24 04:06:02;;;;;;;28.83;16.20;;;3.80;99.90;;;;;;5066603;28;20055;-88
2023/01/24 04:08:27;;;;;;;25.25;15.63;;;2.90;99.90;;;;;;5085252;28;20050;-88
2023/01/24 04:10:56;;;;;;;25.70;16.05;;;2.90;99.90;;;;;;5067236;28;20446;-90
2023/01/24 04:13:25;;;;;;;26.73;16.58;;;;;;;;;;5084577;28;20745;-87
2023/01/24 04:15:54;;;;;;;26.02;15.90;;;2.90;99.90;;;;;;5077558;28;20048;-88
2023/01/24 04:18:20;;;;;;;25.48;16.13;;;2.90;99.90;;;;;;5068286;28;20083;-88
2023/01/24 04:20:46;;;;;;;29.20;15.88;;;2.90;99.90;;;;;;5082789;28;20040;-89
2023/01/24 04:23:14;;;;;;;24.73;15.55;;;2.80;99.90;;;;;;5045537;28;20050;-88
2023/01/24 04:25:40;;;;;;;25.92;15.88;;;;;;;;;;5077622;28;20043;-89
2023/01/24 04:28:06;;;;;;;26.20;15.77;;;2.90;99.90;;;;;;5078372;28;20039;-89
2023/01/24 04:30:42;;;;;;;;;;;;;;;;;;;;;
2023/01/24 04:33:11;;;;;;;22.10;13.52;;;2.90;99.90;;;;;;5076195;28;20032;-89
2023/01/24 04:35:37;;;;;;;22.90;14.32;;;;;;;;;;5080858;28;20093;-90
2023/01/24 04:38:03;;;;;;;23.48;14.63;;;;;;;;;;5082389;28;20051;-89
2023/01/24 04:40:29;;;;;;;22.50;13.82;;;;;;;;;;5077425;28;20074;-89
2023/01/24 04:42:58;;;;;;;22.98;14.50;;;2.90;99.90;;;;;;5085356;28;20035;-88
2023/01/24 04:45:24;;;;;;;22.17;13.93;;;3.60;99.90;;;;;;5068123;28;20040;-87
2023/01/24 04:47:50;;;;;;;23.20;14.43;;;2.90;99.90;;;;;;5097098;28;20058;-89
2023/01/24 04:50:16;;;;;;;24.33;14.35;;;2.90;99.90;;;;;;5081001;28;20040;-88
2023/01/24 04:52:42;;;;;;;24.75;15.07;;;;;;;;;;5079158;28;20035;-87
2023/01/24 04:55:09;;;;;;;24.67;15.43;;;;;;;;;;5070556;28;20067;-87
2023/01/24 04:57:48;;;;;;;23.98;14.48;;;2.90;99.90;;;;;;5081499;28;20047;-88
2023/01/24 05:00:14;;;;;;;22.27;13.90;;;2.90;99.90;;;;;;5084272;28;20506;-89
2023/01/24 05:02:40;;;;;;;23.92;14.18;;;2.90;99.90;;;;;;5087165;28;20574;-88
2023/01/24 05:05:08;;;;;;;21.20;13.48;;;4.00;99.90;;;;;;5067493;28;20052;-88
2023/01/24 05:07:34;;;;;;;21.02;13.05;;;3.10;99.90;;;;;;5072927;28;20032;-86
2023/01/24 05:10:00;;;;;;;22.00;13.38;;;2.90;99.90;;;;;;5081407;28;20047;-88
2023/01/24 05:12:29;;;;;;;21.20;13.88;;;2.90;99.90;;;;;;5102443;28;20554;-88
2023/01/24 05:15:03;;;;;;;21.10;13.07;;;2.90;99.90;;;;;;5101545;28;20046;-88
2023/01/24 05:17:31;;;;;;;21.77;13.40;;;2.90;99.90;;;;;;5070174;28;20071;-87
2023/01/24 05:19:57;;;;;;;21.40;13.45;;;2.80;99.90;;;;;;5079495;28;20048;-88
2023/01/24 05:22:26;;;;;;;21.15;13.63;;;;;;;;;;5065908;28;20404;-89
2023/01/24 05:24:52;;;;;;;22.20;13.63;;;2.90;99.90;;;;;;5100856;28;20404;-89
2023/01/24 05:27:18;;;;;;;22.55;13.30;;;2.90;99.90;;;;;;5079608;28;20040;-87
2023/01/24 05:29:44;;;;;;;21.85;13.38;;;2.90;99.90;;;;;;5098818;28;20035;-88
2023/01/24 05:32:10;;;;;;;21.38;13.82;;;;;;;;;;5067497;28;20040;-88
2023/01/24 05:34:36;;;;;;;22.05;14.02;;;2.90;99.90;;;;;;5067502;28;20032;-88
2023/01/24 05:37:02;;;;;;;21.30;13.80;;;2.80;99.90;;;;;;5081333;28;20123;-88
2023/01/24 05:39:27;;;;;;;20.92;13.98;;;2.90;99.90;;;;;;5082809;28;20112;-86
2023/01/24 05:41:54;;;;;;;22.60;14.40;;;;;;;;;;5075187;28;20028;-88
2023/01/24 05:44:19;;;;;;;24.33;14.75;;;2.80;99.90;;;;;;5076828;28;20132;-88
2023/01/24 05:46:45;;;;;;;25.52;15.38;;;2.90;99.90;;;;;;5066313;28;20111;-86
2023/01/24 05:49:11;;;;;;;24.08;14.52;;;4.60;99.90;;;;;;5083771;28;20232;-87
2023/01/24 05:51:39;;;;;;;24.20;14.18;;;2.90;99.90;;;;;;5076220;28;20031;-88
2023/01/24 05:54:08;;;;;;;22.23;14.20;;;2.90;99.90;;;;;;5063440;28;20040;-89
2023/01/24 05:56:36;;;;;;;23.05;14.50;;;2.90;99.90;;;;;;5078516;28;20115;-85
2023/01/24 05:59:03;;;;;;;22.08;13.90;;;2.90;99.90;;;;;;5096803;28;20075;-89
2023/01/24 06:01:28;;;;;;;22.05;14.10;;;2.80;99.90;;;;;;5064991;28;20102;-87
2023/01/24 06:04:01;;;;;;;25.08;15.45;;;;;;;;;;5090502;28;20127;-87
2023/01/24 06:06:26;;;;;;;23.80;14.82;;;2.80;99.90;;;;;;5073614;28;20039;-86
2023/01/24 06:08:52;;;;;;;24.08;15.32;;;4.80;99.90;;;;;;5077811;28;20461;-87
2023/01/24 06:11:21;;;;;;;24.63;15.35;;;2.80;99.90;;;;;;5078212;28;20425;-87
2023/01/24 06:13:50;;;;;;;25.77;15.60;;;3.00;99.90;;;;;;5100025;28;20044;-88
2023/01/24 06:16:18;;;;;;;24.88;15.80;;;2.80;99.90;;;;;;5071640;28;20043;-89
2023/01/24 06:18:52;;;;;;;27.25;16.33;;;2.80;99.90;;;;;;5084170;28;20043;-89
2023/01/24 06:21:33;;;;;;;23.70;15.25;;;2.80;99.90;;;;;;5108374;28;20047;-91
2023/01/24 06:24:05;;;;;;;25.02;15.65;;;2.70;99.90;;;;;;5082617;28;20450;-89
2023/01/24 06:26:37;;;;;;;26.27;16.30;;;;;;;;;;5073517;28;20039;-89
2023/01/24 06:29:03;;;;;;;25.00;15.93;;;2.80;99.90;;;;;;5086183;28;20765;-88
2023/01/24 06:31:36;;;;;;;24.77;14.75;;;;;;;;;;5091106;28;20044;-89
2023/01/24 06:34:27;;;;;;;23.40;14.93;;;2.80;99.90;;;;;;5087548;28;20044;-88
2023/01/24 06:37:10;;;;;;;26.13;15.85;;;3.00;99.90;;;;;;5095904;28;20037;-89
2023/01/24 06:39:49;;;;;;;25.98;15.38;;;2.80;99.90;;;;;;5103254;28;20110;-88
2023/01/24 06:42:25;;;;;;;25.48;15.70;;;2.70;99.90;;;;;;5096121;28;20164;-90
2023/01/24 06:44:51;;;;;;;24.55;15.55;;;;;;;;;;5053185;28;20044;-89
2023/01/24 06:47:19;;;;;;;25.08;15.80;;;2.80;99.90;;;;;;5086730;28;20568;-88
2023/01/24 06:49:45;;;;;;;23.75;15.02;;;2.80;99.90;;;;;;5083595;28;20056;-89
2023/01/24 06:52:13;;;;;;;26.85;15.20;;;2.70;99.90;;;;;;5079540;28;20039;-89
2023/01/24 06:54:39;;;;;;;24.27;15.25;;;;;;;;;;5074302;28;20055;-88
2023/01/24 06:57:05;;;;;;;23.52;14.88;;;;;;;;;;5081631;28;20039;-89
2023/01/24 06:59:36;;;;;;;22.33;14.02;;;2.80;99.90;;;;;;5079180;28;20086;-88
2023/01/24 07:02:02;;;;;;;22.42;13.25;;;2.70;99.90;;;;;;5098282;28;20138;-88
2023/01/24 07:04:27;;;;;;;22.75;13.48;;;3.10;99.90;;;;;;5096165;28;20185;-88
2023/01/24 07:06:53;;;;;;;20.23;12.77;;;2.80;99.90;;;;;;5064955;28;20088;-88
2023/01/24 07:09:20;;;;;;;19.35;12.15;;;2.70;99.90;;;;;;5076142;28;20416;-87
2023/01/24 07:11:52;;;;;;;20.98;12.80;;;2.70;99.90;;;;;;5078075;28;20043;-88
2023/01/24 07:14:18;;;;;;;19.80;11.90;;;2.70;99.90;;;;;;5060009;28;20522;-89
2023/01/24 07:16:44;;;;;;;18.75;12.05;;;3.60;99.90;;;;;;5097806;28;20406;-88
2023/01/24 07:19:16;;;;;;;20.33;11.88;;;2.70;99.90;;;;;;5081382;28;20509;-88
2023/01/24 07:21:42;;;;;;;20.23;12.27;;;1.90;99.90;;;;;;5097418;28;20054;-90
2023/01/24 07:24:23;;;;;;;20.08;12.45;;;2.70;99.90;;;;;;5080123;28;20654;-89
2023/01/24 07:26:50;;;;;;;19.52;11.98;;;2.70;99.90;;;;;;5096980;28;20039;-88
2023/01/24 07:29:18;;;;;;;19.00;12.23;;;2.80;99.90;;;;;;5076757;28;20040;-89
2023/01/24 07:31:44;;;;;;;19.38;11.55;;;3.70;99.90;;;;;;5083063;28;20377;-87
2023/01/24 07:34:10;;;;;;;18.88;11.40;;;2.70;99.90;;;;;;5079961;28;20035;-88
2023/01/24 07:36:36;;;;;;;19.27;11.75;;;2.70;99.90;;;;;;5078002;28;20111;-90
2023/01/24 07:39:05;;;;;;;18.58;10.85;;;;;;;;;;5068457;28;20364;-88
2023/01/24 07:41:30;;;;;;;19.02;11.50;;;2.70;99.90;;;;;;5096068;28;20040;-88
2023/01/24 07:43:56;;;;;;;19.55;11.60;;;2.70;99.90;;;;;;5036603;28;20105;-88
2023/01/24 07:46:22;;;;;;;18.80;10.90;;;3.10;99.90;;;;;;5080122;28;20042;-90
2023/01/24 07:48:48;;;;;;;19.70;10.80;;;3.90;99.90;;;;;;5079414;28;20043;-92
2023/01/24 07:51:17;;;;;;;17.55;10.10;;;;;;;;;;5078906;28;20042;-87
2023/01/24 07:53:43;;;;;;;17.33;10.45;;;2.70;99.90;;;;;;5093942;28;20036;-88
2023/01/24 07:56:09;;;;;;;18.13;10.65;;;2.70;99.90;;;;;;5081083;28;20306;-88
2023/01/24 07:58:34;;;;;;;18.35;10.77;;;3.60;99.90;;;;;;5063408;28;20043;-91
2023/01/24 08:01:00;;;;;;;17.00;10.07;;;2.70;99.90;;;;;;5073660;28;20713;-88
2023/01/24 08:03:26;;;;;;;16.00;9.77;;;4.30;99.90;;;;;;5074851;28;20075;-91
2023/01/24 08:05:55;;;;;;;18.95;10.57;;;2.60;99.90;;;;;;5080729;28;20104;-90
2023/01/24 08:08:21;;;;;;;19.77;10.27;;;2.70;99.90;;;;;;5073266;28;20039;-90
2023/01/24 08:10:53;;;;;;;15.93;9.23;;;2.80;99.90;;;;;;5067646;28;20565;-88
2023/01/24 08:13:19;;;;;;;17.92;10.32;;;2.50;99.90;;;;;;5098792;28;20376;-91
2023/01/24 08:15:44;;;;;;;17.45;9.88;;;2.70;99.90;;;;;;5057259;28;20043;-89
2023/01/24 08:18:10;;;;;;;17.75;10.38;;;2.70;99.90;;;;;;5094489;28;20130;-87
2023/01/24 08:20:36;;;;;;;16.92;9.95;;;2.70;99.90;;;;;;5059211;28;20109;-87
2023/01/24 08:23:02;;;;;;;17.38;9.82;;;3.90;99.90;;;;;;5039206;28;20487;-88
2023/01/24 08:25:30;;;;;;;17.27;10.15;;;2.80;99.90;;;;;;5073926;28;20159;-89
2023/01/24 08:27:55;;;;;;;16.77;9.55;;;2.70;99.90;;;;;;5076305;28;20028;-88
2023/01/24 08:30:21;;;;;;;18.83;10.45;;;3.00;99.90;;;;;;5049129;28;20510;-89
2023/01/24 08:32:47;;;;;;;16.60;9.77;;;;;;;;;;5082648;28;20040;-88
2023/01/24 08:35:14;;;;;;;17.00;9.23;;;;;;;;;;5080879;28;20036;-89
2023/01/24 08:37:39;;;;;;;17.60;9.98;;;2.80;99.90;;;;;;5080443;28;20047;-90
2023/01/24 08:40:06;;;;;;;16.58;9.90;;;2.80;99.90;;;;;;5080700;28;20046;-87
2023/01/24 08:42:36;;;;;;;17.08;9.50;;;2.80;99.90;;;;;;5074027;28;20043;-87
2023/01/24 08:45:04;;;;;;;17.05;9.85;;;4.10;99.90;;;;;;5068090;28;20054;-90
2023/01/24 08:47:30;;;;;;;17.98;9.93;;;2.80;99.90;;;;;;5087794;28;20408;-88
2023/01/24 08:49:56;;;;;;;15.85;9.18;;;2.90;99.90;;;;;;5064946;28;20040;-87
2023/01/24 08:52:22;;;;;;;15.80;9.27;;;2.80;99.90;;;;;;5071832;28;20031;-87
2023/01/24 08:54:47;;;;;;;16.83;9.15;;;2.90;99.90;;;;;;5054132;28;20114;-88
2023/01/24 08:57:13;;;;;;;15.07;8.60;;;4.70;99.90;;;;;;5067308;28;21644;-88
2023/01/24 08:59:39;;;;;;;16.60;9.65;;;2.80;99.90;;;;;;5057589;28;20035;-87
2023/01/24 09:02:13;;;;;;;15.02;8.63;;;2.80;99.90;;;;;;5071020;28;20047;-91
2023/01/24 09:04:42;;;;;;;16.63;9.50;;;2.90;99.90;;;;;;5068387;28;20055;-88
2023/01/24 09:07:10;;;;;;;15.85;9.15;;;2.90;99.90;;;;;;5071879;28;20031;-87
2023/01/24 09:09:36;;;;;;;15.20;8.98;;;2.80;99.90;;;;;;5070526;28;20123;-91
2023/01/24 09:12:05;;;;;;;15.52;8.50;;;2.80;99.90;;;;;;5089491;28;20111;-89
2023/01/24 09:14:33;;;;;;;17.08;9.32;;;2.90;99.90;;;;;;5052749;28;20475;-89
2023/01/24 09:16:59;;;;;;;15.73;8.90;;;4.60;99.90;;;;;;5074868;28;20055;-89
2023/01/24 09:19:26;;;;;;;15.43;8.57;;;2.90;99.90;;;;;;5069949;28;20036;-89
2023/01/24 09:21:56;;;;;;;15.90;9.18;;;0.50;99.90;;;;;;5070071;28;20044;-90
2023/01/24 09:24:23;;;;;;;16.08;8.52;;;2.70;99.90;;;;;;5082324;28;20084;-88
2023/01/24 09:26:49;;;;;;;15.55;8.50;;;3.00;99.90;;;;;;5075242;28;20073;-91
2023/01/24 09:29:26;;;;;;;16.10;9.43;;;2.80;99.90;;;;;;5092732;28;20048;-88
2023/01/24 09:32:07;;;;;;;14.68;8.43;;;;;;;;;;5091372;28;20040;-89
2023/01/24 09:34:36;;;;;;;15.88;9.02;;;3.00;99.90;;;;;;5078974;28;20484;-89
2023/01/24 09:37:02;;;;;;;14.60;8.63;;;3.00;99.90;;;;;;5077839;28;20059;-89
2023/01/24 09:39:28;;;;;;;17.10;8.85;;;4.30;99.90;;;;;;5096901;28;20094;-89
2023/01/24 09:42:27;;;;;;;15.15;8.60;;;3.00;99.90;;;;;;5068252;28;20043;-89
2023/01/24 09:45:12;;;;;;;16.15;8.75;;;3.00;99.90;;;;;;5079369;28;20397;-90
2023/01/24 09:47:51;;;;;;;15.05;8.35;;;3.00;99.90;;;;;;5081329;28;20038;-88
2023/01/24 09:50:21;;;;;;;14.88;8.02;;;3.80;99.90;;;;;;5093733;28;20032;-90
2023/01/24 09:52:55;;;;;;;15.15;8.63;;;3.10;99.90;;;;;;5076049;28;20593;-91
2023/01/24 09:55:35;;;;;;;14.63;8.27;;;3.10;99.90;;;;;;5073064;28;20028;-89
2023/01/24 09:58:01;;;;;;;15.40;8.68;;;3.10;99.90;;;;;;5079328;28;20042;-87
2023/01/24 10:00:31;;;;;;;14.13;8.27;;;3.10;99.90;;;;;;5075412;28;20035;-87
2023/01/24 10:02:59;;;;;;;16.02;8.52;;;5.00;99.90;;;;;;5072418;28;20131;-86
2023/01/24 10:05:36;;;;;;;15.02;8.00;;;3.20;99.90;;;;;;5076874;28;20047;-90
2023/01/24 10:08:08;;;;;;;14.52;8.07;;;3.10;99.90;;;;;;5088692;28;20036;-89
2023/01/24 10:10:37;;;;;;;14.63;7.95;;;3.20;99.90;;;;;;5090470;28;20068;-91
2023/01/24 10:13:39;;;;;;;13.95;8.13;;;5.10;99.90;;;;;;5079904;28;20126;-88
2023/01/24 10:16:46;;;;;;;14.90;8.65;;;3.20;99.90;;;;;;5076709;28;20169;-91
2023/01/24 10:19:48;;;;;;;14.88;8.70;;;3.20;99.90;;;;;;5076246;28;20127;-89
2023/01/24 10:22:34;;;;;;;15.45;8.48;;;3.20;99.90;;;;;;5075168;28;20491;-87
2023/01/24 10:25:05;;;;;;;15.77;8.95;;;3.20;99.90;;;;;;5075396;28;20042;-88
2023/01/24 10:27:43;;;;;;;16.65;8.70;;;3.30;99.90;;;;;;5073366;28;20043;-87
2023/01/24 10:30:36;;;;;;;15.70;9.25;;;4.90;99.90;;;;;;5072193;28;20492;-89
2023/01/24 10:33:10;;;;;;;15.70;8.90;;;3.30;99.90;;;;;;5097904;28;20035;-90
2023/01/24 10:35:53;;;;;;;14.85;8.55;;;3.30;99.90;;;;;;5073965;28;20075;-89
2023/01/24 10:38:19;;;;;;;16.10;9.25;;;3.30;99.90;;;;;;5083518;28;20058;-88
2023/01/24 10:41:09;;;;;;;16.23;8.65;;;3.90;99.90;;;;;;5078799;28;20489;-87
2023/01/24 10:43:38;;;;;;;15.40;8.57;;;3.40;99.90;;;;;;5067762;28;20108;-88
2023/01/24 10:46:30;;;;;;;14.73;8.27;;;3.40;99.90;;;;;;5075855;28;20633;-89
2023/01/24 10:48:58;;;;;;;17.23;9.25;;;3.40;99.90;;;;;;5061733;28;20050;-89
2023/01/24 10:51:24;;;;;;;16.02;8.48;;;;;;;;;;5083132;28;20043;-88
2023/01/24 10:53:50;;;;;;;15.80;9.30;;;2.70;99.90;;;;;;5080350;28;20043;-87
2023/01/24 10:56:19;;;;;;;16.25;8.80;;;3.80;99.90;;;;;;5091846;28;20027;-88
2023/01/24 10:59:07;;;;;;;15.07;8.35;;;3.40;99.90;;;;;;5063479;28;20105;-89
2023/01/24 11:01:35;;;;;;;15.13;8.98;;;3.40;99.90;;;;;;5080911;28;20066;-90
2023/01/24 11:04:13;;;;;;;14.95;8.40;;;3.40;99.90;;;;;;5096881;28;20108;-89
2023/01/24 11:06:39;;;;;;;16.40;9.60;;;4.50;99.90;;;;;;5073481;28;20047;-91
2023/01/24 11:09:14;;;;;;;16.05;9.00;;;3.40;99.90;;;;;;5082951;28;20051;-92
2023/01/24 11:11:51;;;;;;;15.68;8.90;;;3.40;99.90;;;;;;5070124;28;20392;-90
2023/01/24 11:14:46;;;;;;;15.40;8.35;;;3.40;99.90;;;;;;5080542;28;20036;-90
2023/01/24 11:17:31;;;;;;;15.35;9.00;;;3.90;99.90;;;;;;5073614;28;20048;-90
2023/01/24 11:20:15;;;;;;;15.38;8.77;;;3.40;99.90;;;;;;5084198;28;20047;-90
2023/01/24 11:22:43;;;;;;;15.48;8.85;;;;;;;;;;5094951;28;20043;-90
2023/01/24 11:25:14;;;;;;;15.75;9.38;;;;;;;;;;5078642;28;20067;-90
2023/01/24 11:27:48;;;;;;;15.43;9.05;;;3.40;99.90;;;;;;5084627;28;20040;-88
2023/01/24 11:30:13;;;;;;;16.90;9.82;;;3.40;99.90;;;;;;5080084;28;20040;-89
2023/01/24 11:33:09;;;;;;;17.30;9.20;;;3.30;99.90;;;;;;5100378;28;20400;-90
2023/01/24 11:35:45;;;;;;;17.65;10.32;;;3.40;99.90;;;;;;5083712;28;20028;-90
2023/01/24 11:38:11;;;;;;;16.48;9.38;;;3.10;99.90;;;;;;5079366;28;20618;-91
2023/01/24 11:40:58;;;;;;;16.08;8.95;;;3.40;99.90;;;;;;5082331;28;20134;-87
2023/01/24 11:43:47;;;;;;;15.80;9.15;;;3.50;99.90;;;;;;5074146;28;20127;-89
2023/01/24 11:46:26;;;;;;;16.35;10.02;;;3.40;99.90;;;;;;5093931;28;20043;-90
2023/01/24 11:49:21;;;;;;;18.05;9.48;;;3.50;99.90;;;;;;5092444;28;20066;-90
2023/01/24 11:52:01;;;;;;;17.63;10.18;;;3.40;99.90;;;;;;5075088;28;20043;-91
2023/01/24 11:54:58;;;;;;;17.52;9.80;;;3.50;99.90;;;;;;5078531;28;20081;-89
2023/01/24 11:57:25;;;;;;;18.40;9.95;;;;;;;;;;5076057;28;20051;-90
2023/01/24 12:00:18;;;;;;;17.95;9.63;;;3.50;99.90;;;;;;5075699;28;20051;-88
2023/01/24 12:03:08;;;;;;;17.33;9.93;;;3.40;99.90;;;;;;5096735;28;20056;-88
2023/01/24 12:05:36;;;;;;;16.73;9.88;;;3.50;99.90;;;;;;5078844;28;20439;-89
2023/01/24 12:08:02;;;;;;;17.00;10.23;;;;;;;;;;5077317;28;20081;-90
2023/01/24 12:10:51;;;;;;;17.02;10.07;;;3.50;99.90;;;;;;5078031;28;20032;-87
2023/01/24 12:13:36;;;;;;;18.65;10.18;;;3.50;99.90;;;;;;5086225;28;20511;-89
2023/01/24 12:16:08;;;;;;;16.73;10.20;;;3.50;99.90;;;;;;5088530;28;20032;-88
2023/01/24 12:19:06;;;;;;;18.10;10.07;;;3.40;99.90;;;;;;5080842;28;20035;-91
2023/01/24 12:21:32;;;;;;;17.13;9.75;;;;;;;;;;5079911;28;20043;-91
2023/01/24 12:24:19;;;;;;;17.55;9.73;;;3.40;99.90;;;;;;5075397;28;20057;-89
2023/01/24 12:26:49;;;;;;;18.92;11.18;;;3.40;99.90;;;;;;5096474;28;20040;-86
2023/01/24 12:29:39;;;;;;;17.27;10.57;;;3.50;99.90;;;;;;5101015;28;20031;-91
2023/01/24 12:32:25;;;;;;;17.50;9.75;;;3.40;99.90;;;;;;5076699;28;20126;-90
2023/01/24 12:35:04;;;;;;;17.65;10.57;;;3.10;99.90;;;;;;5075064;28;20129;-90
2023/01/24 12:37:57;;;;;;;19.17;10.63;;;3.40;99.90;;;;;;5073740;28;20527;-89
2023/01/24 12:40:34;;;;;;;;;;;3.40;99.90;;;;;;5047677;28;20055;-89
2023/01/24 12:43:19;;;;;;;16.40;9.20;;;3.30;99.90;;;;;;5073783;28;19970;-90
2023/01/24 12:45:56;;;;;;;18.20;10.93;;;3.40;99.90;;;;;;5078245;28;20036;-89
2023/01/24 12:48:52;;;;;;;17.20;10.20;;;3.30;99.90;;;;;;5072175;28;20468;-89
2023/01/24 12:51:29;;;;;;;19.17;10.45;;;3.40;99.90;;;;;;5091762;28;20420;-90
2023/01/24 12:54:01;;;;;;;16.75;9.85;;;3.20;99.90;;;;;;5080606;28;20460;-89
2023/01/24 12:57:13;;;;;;;18.20;10.15;;;3.30;99.90;;;;;;5078033;28;20031;-91
2023/01/24 12:59:39;;;;;;;17.67;10.30;;;3.30;99.90;;;;;;5058073;28;20511;-91
2023/01/24 13:02:49;;;;;;;19.98;11.20;;;3.30;99.90;;;;;;5079526;28;20062;-87
2023/01/24 13:05:49;;;;;;;18.63;10.40;;;3.30;99.90;;;;;;5041492;28;20032;-92
2023/01/24 13:08:42;;;;;;;17.48;10.40;;;3.30;99.90;;;;;;5078585;28;20040;-92
2023/01/24 13:11:28;;;;;;;17.83;10.40;;;3.20;99.90;;;;;;5079610;28;20118;-90
2023/01/24 13:14:14;;;;;;;18.42;10.27;;;3.30;99.90;;;;;;5073788;28;20032;-91
2023/01/24 13:17:17;;;;;;;18.98;10.80;;;3.20;99.90;;;;;;5094114;28;20450;-91
2023/01/24 13:20:14;;;;;;;20.75;12.15;;;3.30;99.90;;;;;;5084457;28;20112;-92
2023/01/24 13:22:45;;;;;;;19.20;11.15;;;3.30;99.90;;;;;;5084271;28;20112;-92
2023/01/24 13:25:48;;;;;;;18.88;11.50;;;3.30;99.90;;;;;;5096695;28;20036;-93
2023/01/24 13:28:40;;;;;;;20.30;11.57;;;3.30;99.90;;;;;;5097022;28;20043;-92
2023/01/24 13:31:34;;;;;;;19.83;11.77;;;3.30;99.90;;;;;;5086363;28;20117;-92
2023/01/24 13:34:15;;;;;;;20.35;12.13;;;3.30;99.90;;;;;;5095438;28;20039;-92
2023/01/24 13:36:48;;;;;;;19.88;11.40;;;3.30;99.90;;;;;;5097326;28;20035;-92
2023/01/24 13:39:35;;;;;;;19.95;11.68;;;3.10;99.90;;;;;;5081077;28;20040;-94
2023/01/24 13:42:21;;;;;;;18.60;10.88;;;3.30;99.90;;;;;;5093032;28;20043;-92
2023/01/24 13:44:47;;;;;;;19.48;11.68;;;3.30;99.90;;;;;;5096327;28;20109;-92
2023/01/24 13:47:16;;;;;;;18.55;10.98;;;;;;;;;;5096564;28;20530;-93
2023/01/24 13:50:09;;;;;;;23.00;11.98;;;3.30;99.90;;;;;;5092912;28;20047;-91
2023/01/24 13:52:38;;;;;;;18.83;11.52;;;3.30;99.90;;;;;;5101871;28;20066;-91